Time;durP1;ratioP1;P1;durP2;ratioP2;P2;SDS_P1;SDS_P2;PMS_P1;PMS_P2;Temp;Humidity;BMP_temperature;BMP_pressure;BME280_temperature;BME280_humidity;BME280_pressure;Samples;Min_cycle;Max_cycle;Signal;HPM_P1;HPM_P2
2022/04/28 00:00:09;;;;;;;;;;;;;;;17.20;53.68;99521.41;4484503;32;33499;-81
2022/04/28 00:02:37;;;;;;;;;;;;;;;17.35;53.35;99516.03;4482876;32;33939;-82
2022/04/28 00:05:05;;;;;;;;;;;;;;;17.50;52.79;99515.91;4483383;32;34849;-81
2022/04/28 00:07:32;;;;;;;;;;;;;;;17.09;53.66;99523.25;4469588;32;34196;-82
2022/04/28 00:10:00;;;;;;;;;;;;;;;17.33;52.99;99517.78;4483585;32;33375;-82
2022/04/28 00:12:27;;;;;;;;;;;;;;;17.00;53.90;99511.94;4484126;32;34908;-81
2022/04/28 00:14:55;;;;;;;;;;;;;;;16.75;54.59;99513.03;4483160;32;34478;-82
2022/04/28 00:17:22;;;;;;;;;;;;;;;17.24;53.31;99523.13;4468338;32;35357;-81
2022/04/28 00:19:50;;;;;;;;;;;;;;;17.64;51.82;99513.13;4483918;32;36432;-82
2022/04/28 00:22:17;;;;;;;;;;;;;;;16.00;56.32;99524.69;4469293;32;35092;-82
2022/04/28 00:24:44;;;;;;;;;;;;;;;16.73;54.49;99523.47;4482977;32;35333;-81
2022/04/28 00:27:12;;;;;;;;;;;;;;;16.88;54.26;99519.91;4483490;32;34081;-81
2022/04/28 00:29:39;;;;;;;;;;;;;;;16.21;55.70;99517.62;4483999;32;32801;-82
2022/04/28 00:32:07;;;;;;;;;;;;;;;16.22;55.97;99515.03;4482419;32;34233;-82
2022/04/28 00:34:34;;;;;;;;;;;;;;;16.13;56.16;99517.66;4483753;32;34359;-81
2022/04/28 00:37:02;;;;;;;;;;;;;;;16.97;53.94;99518.94;4469127;32;35094;-82
2022/04/28 00:39:30;;;;;;;;;;;;;;;15.73;57.09;99515.19;4482782;32;33192;-82
2022/04/28 00:41:57;;;;;;;;;;;;;;;16.34;55.66;99519.31;4482486;32;34044;-82
2022/04/28 00:44:25;;;;;;;;;;;;;;;16.52;55.13;99521.84;4483216;32;34397;-82
2022/04/28 00:46:54;;;;;;;;;;;;;;;17.20;53.18;99516.19;4483644;32;34819;-82
2022/04/28 00:52:07;;;;;;;;;;;;;;;17.49;52.05;99527.25;4481234;32;34243;-82
2022/04/28 00:54:34;;;;;;;;;;;;;;;17.81;51.35;99517.38;4483731;32;34933;-82
2022/04/28 00:57:02;;;;;;;;;;;;;;;17.20;52.40;99527.53;4483193;32;35487;-81
2022/04/28 00:59:30;;;;;;;;;;;;;;;17.22;52.52;99522.25;4462488;32;33514;-82
2022/04/28 01:01:57;;;;;;;;;;;;;;;17.51;51.97;99525.50;4480050;32;34548;-81
2022/04/28 01:04:24;;;;;;;;;;;;;;;17.52;51.66;99523.72;4480223;32;33937;-82
2022/04/28 01:06:52;;;;;;;;;;;;;;;17.56;51.32;99514.94;4483075;32;34382;-82
2022/04/28 01:09:19;;;;;;;;;;;;;;;17.51;51.49;99524.62;4469037;32;34662;-81
2022/04/28 01:11:46;;;;;;;;;;;;;;;17.40;51.60;99514.22;4479475;32;35107;-82
2022/04/28 01:14:15;;;;;;;;;;;;;;;17.12;52.50;99508.38;4482261;32;34423;-83
2022/04/28 01:16:42;;;;;;;;;;;;;;;16.74;53.10;99513.87;4483658;32;34249;-83
2022/04/28 01:19:10;;;;;;;;;;;;;;;17.02;52.59;99509.31;4479467;32;33343;-83
2022/04/28 01:21:37;;;;;;;;;;;;;;;16.63;53.71;99513.03;4478157;32;34696;-83
2022/04/28 01:24:10;;;;;;;;;;;;;;;17.31;51.48;99506.44;4482717;32;35282;-82
2022/04/28 01:26:37;;;;;;;;;;;;;;;16.81;53.02;99505.09;4468470;32;34419;-83
2022/04/28 01:29:04;;;;;;;;;;;;;;;17.16;52.41;99501.34;4480087;32;32941;-83
2022/04/28 01:31:32;;;;;;;;;;;;;;;17.56;51.38;99498.34;4482804;32;34718;-82
2022/04/28 01:34:00;;;;;;;;;;;;;;;16.53;53.86;99502.62;4482094;32;34866;-82
2022/04/28 01:36:28;;;;;;;;;;;;;;;16.83;52.98;99503.34;4483324;32;34518;-83
2022/04/28 01:38:56;;;;;;;;;;;;;;;16.41;54.14;99502.72;4480823;32;34137;-82
2022/04/28 01:41:23;;;;;;;;;;;;;;;16.72;52.97;99497.28;4474130;32;35082;-83
2022/04/28 01:43:51;;;;;;;;;;;;;;;16.43;53.90;99500.94;4482901;32;34374;-82
2022/04/28 01:46:18;;;;;;;;;;;;;;;17.20;52.22;99497.84;4483301;32;34486;-82
2022/04/28 01:48:46;;;;;;;;;;;;;;;17.36;51.74;99491.56;4481660;32;33079;-82
2022/04/28 01:56:48;;;;;;;;;;;;;;;18.13;49.34;99494.22;4481621;32;35071;-83
2022/04/28 01:59:16;;;;;;;;;;;;;;;17.91;49.62;99491.00;4482621;32;33161;-82
2022/04/28 02:01:43;;;;;;;;;;;;;;;17.87;49.74;99497.16;4483177;32;33785;-83
2022/04/28 02:04:11;;;;;;;;;;;;;;;17.74;50.06;99506.03;4483304;32;35377;-82
2022/04/28 02:06:40;;;;;;;;;;;;;;;16.90;52.14;99510.28;4483162;32;34906;-82
2022/04/28 02:09:07;;;;;;;;;;;;;;;17.01;51.85;99511.09;4481234;32;33262;-83
2022/04/28 02:11:35;;;;;;;;;;;;;;;17.26;51.23;99510.88;4482021;32;34603;-83
2022/04/28 02:14:06;;;;;;;;;;;;;;;17.74;50.00;99506.91;4482811;32;34416;-83
2022/04/28 02:16:36;;;;;;;;;;;;;;;17.75;49.95;99510.41;4483278;32;33236;-83
2022/04/28 02:19:04;;;;;;;;;;;;;;;17.89;49.48;99503.28;4482295;32;33086;-82
2022/04/28 02:21:32;;;;;;;;;;;;;;;18.08;48.89;99493.44;4482925;32;35003;-83
2022/04/28 02:23:59;;;;;;;;;;;;;;;18.56;47.77;99496.28;4483105;32;35413;-83
2022/04/28 02:26:26;;;;;;;;;;;;;;;18.85;47.22;99497.63;4483321;32;35054;-82
2022/04/28 02:28:53;;;;;;;;;;;;;;;18.15;48.50;99491.59;4481782;32;34133;-83
2022/04/28 02:31:22;;;;;;;;;;;;;;;18.29;48.16;99492.25;4467748;32;35103;-83
2022/04/28 02:33:49;;;;;;;;;;;;;;;18.48;47.64;99490.25;4474522;32;33905;-83
2022/04/28 02:36:17;;;;;;;;;;;;;;;18.11;48.49;99487.28;4467799;32;33938;-83
2022/04/28 02:38:44;;;;;;;;;;;;;;;17.40;49.85;99487.16;4482478;32;33628;-83
2022/04/28 02:41:19;;;;;;;;;;;;;;;17.36;50.41;99485.47;4481185;32;34013;-83
2022/04/28 02:43:47;;;;;;;;;;;;;;;17.91;48.92;99480.50;4482286;32;34400;-83
2022/04/28 02:46:15;;;;;;;;;;;;;;;18.25;48.07;99493.19;4482191;32;34125;-83
2022/04/28 02:48:43;;;;;;;;;;;;;;;18.62;47.31;99485.69;4483140;32;33848;-83
2022/04/28 02:51:10;;;;;;;;;;;;;;;19.06;46.20;99484.16;4479845;32;34752;-83
2022/04/28 02:53:38;;;;;;;;;;;;;;;18.86;46.54;99487.09;4482078;32;34129;-82
2022/04/28 02:56:06;;;;;;;;;;;;;;;18.88;46.47;99490.56;4481054;32;33794;-83
2022/04/28 02:58:37;;;;;;;;;;;;;;;17.92;48.33;99479.62;4482467;32;33150;-84
2022/04/28 03:01:04;;;;;;;;;;;;;;;18.04;48.09;99480.38;4479399;32;35167;-84
2022/04/28 03:03:32;;;;;;;;;;;;;;;18.09;48.05;99492.53;4476298;32;34252;-83
2022/04/28 03:11:33;;;;;;;;;;;;;;;18.61;46.74;99488.34;4480635;32;35212;-84
2022/04/28 03:14:00;;;;;;;;;;;;;;;17.89;48.14;99486.66;4481912;32;33913;-84
2022/04/28 03:16:28;;;;;;;;;;;;;;;18.08;47.74;99487.31;4481573;31;33710;-83
2022/04/28 03:18:56;;;;;;;;;;;;;;;18.89;46.00;99486.19;4481925;32;32890;-84
2022/04/28 03:21:24;;;;;;;;;;;;;;;17.57;48.86;99495.69;4482968;32;35045;-84
2022/04/28 03:23:51;;;;;;;;;;;;;;;16.95;50.62;99500.63;4470208;32;33897;-85
2022/04/28 03:26:19;;;;;;;;;;;;;;;17.11;50.28;99504.00;4481737;32;33757;-83
2022/04/28 03:28:47;;;;;;;;;;;;;;;16.98;50.55;99505.00;4469034;32;32830;-84
2022/04/28 03:31:14;;;;;;;;;;;;;;;17.13;50.44;99509.25;4478291;32;33786;-84
2022/04/28 03:33:43;;;;;;;;;;;;;;;16.90;51.01;99504.19;4481899;32;33693;-84
2022/04/28 03:38:56;;;;;;;;;;;;;;;16.90;51.00;99506.81;4482834;32;34183;-84
2022/04/28 03:41:24;;;;;;;;;;;;;;;16.41;52.29;99512.31;4483553;32;33705;-83
2022/04/28 03:43:51;;;;;;;;;;;;;;;16.66;51.77;99516.50;4483597;32;34361;-83
2022/04/28 03:46:19;;;;;;;;;;;;;;;16.65;51.33;99520.03;4469630;32;34467;-83
2022/04/28 03:48:48;;;;;;;;;;;;;;;16.97;50.65;99513.72;4484243;32;33513;-83
2022/04/28 03:51:16;;;;;;;;;;;;;;;16.77;51.01;99521.72;4483885;32;34729;-82
2022/04/28 03:53:43;;;;;;;;;;;;;;;17.19;50.10;99522.28;4483500;32;35359;-82
2022/04/28 03:56:11;;;;;;;;;;;;;;;16.25;52.66;99519.34;4483957;32;34909;-82
2022/04/28 03:58:40;;;;;;;;;;;;;;;15.05;55.81;99529.16;4484303;32;33750;-82
2022/04/28 04:01:07;;;;;;;;;;;;;;;15.24;55.37;99530.03;4478596;32;34320;-82
2022/04/28 04:03:35;;;;;;;;;;;;;;;14.88;56.77;99531.75;4479463;32;34286;-82
2022/04/28 04:06:03;;;;;;;;;;;;;;;15.18;55.43;99545.69;4484296;32;34081;-82
2022/04/28 04:08:30;;;;;;;;;;;;;;;16.04;53.53;99539.50;4484013;32;32595;-82
2022/04/28 04:10:57;;;;;;;;;;;;;;;14.94;56.53;99544.81;4479874;32;34018;-83
2022/04/28 04:13:25;;;;;;;;;;;;;;;14.67;57.37;99545.66;4472098;32;34350;-83
2022/04/28 04:15:53;;;;;;;;;;;;;;;15.51;54.83;99543.06;4481921;32;34503;-83
2022/04/28 04:18:21;;;;;;;;;;;;;;;14.94;56.79;99542.22;4482845;32;34059;-83
2022/04/28 04:20:49;;;;;;;;;;;;;;;14.53;57.62;99545.59;4476811;32;33996;-84
2022/04/28 04:23:17;;;;;;;;;;;;;;;15.09;56.38;99544.84;4471012;32;34108;-83
2022/04/28 04:25:45;;;;;;;;;;;;;;;15.39;55.28;99540.47;4483802;32;35161;-83
2022/04/28 04:28:14;;;;;;;;;;;;;;;15.53;54.82;99545.69;4483498;32;33713;-83
2022/04/28 04:33:29;;;;;;;;;;;;;;;15.46;54.75;99542.22;4475816;32;33386;-83
2022/04/28 04:35:56;;;;;;;;;;;;;;;15.64;54.04;99543.06;4458645;32;34896;-81
2022/04/28 04:38:23;;;;;;;;;;;;;;;15.51;54.69;99537.84;4483888;32;33268;-83
2022/04/28 04:40:51;;;;;;;;;;;;;;;14.77;57.02;99552.63;4480860;32;34064;-84
2022/04/28 04:43:19;;;;;;;;;;;;;;;14.89;56.44;99545.66;4483303;32;34095;-83
2022/04/28 04:45:47;;;;;;;;;;;;;;;15.96;53.69;99545.63;4475104;32;34452;-83
2022/04/28 04:48:14;;;;;;;;;;;;;;;15.72;54.02;99541.31;4468837;32;34115;-83
2022/04/28 04:50:42;;;;;;;;;;;;;;;15.95;53.25;99544.78;4471522;32;33688;-84
2022/04/28 04:53:09;;;;;;;;;;;;;;;15.80;53.44;99547.44;4480086;32;34939;-84
2022/04/28 04:55:37;;;;;;;;;;;;;;;16.40;52.19;99553.31;4479364;32;35377;-83
2022/04/28 04:58:05;;;;;;;;;;;;;;;16.61;51.45;99551.47;4476834;32;33100;-82
2022/04/28 05:00:33;;;;;;;;;;;;;;;15.53;54.03;99557.03;4474634;32;34909;-84
2022/04/28 05:03:04;;;;;;;;;;;;;;;16.08;53.01;99556.06;4473173;32;34802;-83
2022/04/28 05:05:33;;;;;;;;;;;;;;;14.66;56.85;99562.19;4467739;32;34848;-83
2022/04/28 05:08:00;;;;;;;;;;;;;;;15.12;56.34;99561.38;4473746;32;32989;-82
2022/04/28 05:10:28;;;;;;;;;;;;;;;15.69;54.46;99562.25;4483318;32;34200;-85
2022/04/28 05:12:55;;;;;;;;;;;;;;;15.28;56.18;99570.97;4484124;32;34081;-84
2022/04/28 05:15:22;;;;;;;;;;;;;;;15.26;56.11;99565.72;4483330;32;33979;-84
2022/04/28 05:17:51;;;;;;;;;;;;;;;15.20;56.43;99567.47;4482417;32;34311;-84
2022/04/28 05:20:18;;;;;;;;;;;;;;;16.23;53.66;99566.47;4483797;32;34092;-84
2022/04/28 05:22:51;;;;;;;;;;;;;;;16.34;53.66;99579.50;4484060;32;33747;-84
2022/04/28 05:25:19;;;;;;;;;;;;;;;16.75;51.85;99575.84;4482211;32;34100;-83
2022/04/28 05:27:48;;;;;;;;;;;;;;;16.97;51.47;99577.47;4469032;32;31322;-84
2022/04/28 05:30:23;;;;;;;;;;;;;;;16.45;53.25;99572.47;4468308;32;32930;-85
2022/04/28 05:32:51;;;;;;;;;;;;;;;16.84;52.59;99588.03;4468030;32;33934;-85
2022/04/28 05:35:19;;;;;;;;;;;;;;;16.93;51.67;99591.47;4467516;32;34585;-85
2022/04/28 05:37:46;;;;;;;;;;;;;;;16.91;51.89;99587.09;4467671;32;33212;-85
2022/04/28 05:40:15;;;;;;;;;;;;;;;17.44;50.97;99593.72;4456854;32;34393;-85
2022/04/28 05:45:43;;;;;;;;;;;;;;;17.36;50.56;99585.91;4457432;32;33894;-83
2022/04/28 05:48:16;;;;;;;;;;;;;;;17.03;51.34;99595.75;4483964;32;33307;-85
2022/04/28 05:50:43;;;;;;;;;;;;;;;16.49;53.27;99599.50;4482470;32;34593;-85
2022/04/28 05:53:11;;;;;;;;;;;;;;;15.89;54.09;99597.06;4469715;32;34935;-85
2022/04/28 05:55:38;;;;;;;;;;;;;;;16.77;52.46;99590.66;4483747;32;34839;-84
2022/04/28 05:58:06;;;;;;;;;;;;;;;16.56;52.61;99605.59;4483317;32;33134;-84
2022/04/28 06:00:34;;;;;;;;;;;;;;;15.91;54.63;99611.03;4483006;32;33281;-84
2022/04/28 06:03:02;;;;;;;;;;;;;;;15.89;54.51;99607.53;4483084;32;33814;-83
2022/04/28 06:05:30;;;;;;;;;;;;;;;15.74;55.01;99605.81;4483230;32;34101;-85
2022/04/28 06:07:57;;;;;;;;;;;;;;;16.57;53.18;99602.09;4481261;32;33061;-83
2022/04/28 06:10:24;;;;;;;;;;;;;;;16.54;53.23;99606.44;4482338;32;33784;-83
2022/04/28 06:12:52;;;;;;;;;;;;;;;16.65;53.00;99601.16;4482780;32;34420;-84
2022/04/28 06:15:22;;;;;;;;;;;;;;;15.93;54.29;99614.50;4475978;31;33647;-83
2022/04/28 06:17:55;;;;;;;;;;;;;;;15.52;55.87;99617.97;4467961;32;32757;-84
2022/04/28 06:20:22;;;;;;;;;;;;;;;16.41;53.61;99617.88;4477877;32;34229;-84
2022/04/28 06:22:51;;;;;;;;;;;;;;;17.10;51.35;99614.91;4483009;32;34994;-84
2022/04/28 06:25:19;;;;;;;;;;;;;;;16.55;52.84;99620.41;4483016;32;34115;-84
2022/04/28 06:27:46;;;;;;;;;;;;;;;16.55;52.28;99623.03;4483140;32;33286;-83
2022/04/28 06:30:13;;;;;;;;;;;;;;;16.44;52.67;99622.19;4481355;32;35161;-84
2022/04/28 06:32:41;;;;;;;;;;;;;;;17.40;50.67;99624.31;4483042;32;35041;-84
2022/04/28 06:35:09;;;;;;;;;;;;;;;16.32;53.78;99628.34;4483071;32;34112;-84
2022/04/28 06:37:36;;;;;;;;;;;;;;;16.42;53.44;99635.28;4482688;32;32860;-83
2022/04/28 06:40:04;;;;;;;;;;;;;;;17.15;51.12;99630.59;4482642;32;34303;-85
2022/04/28 06:42:31;;;;;;;;;;;;;;;16.42;53.86;99624.81;4483150;32;34229;-85
2022/04/28 06:45:06;;;;;;;;;;;;;;;16.55;53.98;99630.88;4482502;32;33287;-83
2022/04/28 06:47:37;;;;;;;;;;;;;;;16.01;54.30;99631.03;4479975;32;31583;-85
2022/04/28 06:50:19;;;;;;;;;;;;;;;16.65;51.83;99623.88;4476134;32;32346;-85
2022/04/28 06:52:50;;;;;;;;;;;;;;;17.14;50.73;99628.88;4482472;32;33272;-86
2022/04/28 06:55:21;;;;;;;;;;;;;;;16.68;51.37;99627.34;4481736;32;34244;-85
2022/04/28 06:57:51;;;;;;;;;;;;;;;16.92;50.60;99621.13;4483115;32;33256;-86
2022/04/28 07:00:19;;;;;;;;;;;;;;;16.93;51.10;99625.50;4482476;32;34947;-86
2022/04/28 07:02:47;;;;;;;;;;;;;;;17.41;49.58;99626.03;4468654;32;35115;-86
2022/04/28 07:05:15;;;;;;;;;;;;;;;17.33;50.43;99627.00;4481904;32;34089;-86
2022/04/28 07:07:42;;;;;;;;;;;;;;;17.20;49.67;99627.09;4482365;32;33305;-86
2022/04/28 07:10:10;;;;;;;;;;;;;;;16.70;51.21;99629.94;4481497;32;33839;-85
2022/04/28 07:12:39;;;;;;;;;;;;;;;17.64;48.53;99625.00;4482330;32;34824;-85
2022/04/28 07:15:15;;;;;;;;;;;;;;;17.26;49.92;99631.41;4482738;32;34486;-85
2022/04/28 07:17:47;;;;;;;;;;;;;;;17.37;49.51;99632.19;4483030;32;33022;-85
2022/04/28 07:20:14;;;;;;;;;;;;;;;15.94;52.72;99637.16;4482719;32;35444;-85
2022/04/28 07:22:41;;;;;;;;;;;;;;;17.16;50.95;99635.84;4481109;32;34998;-85
2022/04/28 07:25:09;;;;;;;;;;;;;;;16.90;50.69;99633.38;4468435;32;33645;-85
2022/04/28 07:27:36;;;;;;;;;;;;;;;17.52;48.44;99644.31;4482371;32;33261;-85
2022/04/28 07:30:04;;;;;;;;;;;;;;;17.67;48.68;99641.56;4482810;32;33997;-84
2022/04/28 07:32:32;;;;;;;;;;;;;;;17.39;49.26;99643.56;4482581;32;35415;-85
2022/04/28 07:35:06;;;;;;;;;;;;;;;17.17;49.77;99645.44;4482497;32;34120;-84
2022/04/28 07:37:39;;;;;;;;;;;;;;;16.88;50.49;99647.34;4482712;32;32407;-84
2022/04/28 07:40:08;;;;;;;;;;;;;;;17.54;50.41;99650.44;4482576;32;34166;-85
2022/04/28 07:42:38;;;;;;;;;;;;;;;16.56;52.00;99658.81;4468208;32;34657;-84
2022/04/28 07:45:06;;;;;;;;;;;;;;;17.21;50.68;99648.91;4482448;32;34094;-85
2022/04/28 07:47:34;;;;;;;;;;;;;;;16.54;51.99;99650.94;4482297;32;33528;-85
2022/04/28 07:50:02;;;;;;;;;;;;;;;17.66;50.18;99658.19;4481896;32;34248;-85
2022/04/28 07:52:30;;;;;;;;;;;;;;;17.95;49.48;99663.19;4468101;32;34455;-86
2022/04/28 07:54:57;;;;;;;;;;;;;;;18.34;48.08;99647.97;4482401;32;34182;-85
2022/04/28 07:57:25;;;;;;;;;;;;;;;19.06;46.17;99654.09;4482077;32;34054;-85
2022/04/28 07:59:54;;;;;;;;;;;;;;;19.04;46.52;99654.09;4482212;32;33914;-84
2022/04/28 08:02:21;;;;;;;;;;;;;;;18.87;47.26;99659.59;4482400;32;34148;-84
2022/04/28 08:04:49;;;;;;;;;;;;;;;19.24;44.84;99655.56;4467724;32;33977;-85
2022/04/28 08:07:16;;;;;;;;;;;;;;;18.99;43.84;99648.06;4484166;32;33595;-85
2022/04/28 08:09:44;;;;;;;;;;;;;;;18.81;45.31;99651.78;4484561;32;34882;-84
2022/04/28 08:12:13;;;;;;;;;;;;;;;19.13;42.31;99655.72;4484774;32;34144;-85
2022/04/28 08:15:00;;;;;;;;;;;;;;;19.02;44.28;99655.03;4472780;32;34373;-82
2022/04/28 08:17:29;;;;;;;;;;;;;;;19.26;45.38;99659.94;4484546;32;33900;-85
2022/04/28 08:19:56;;;;;;;;;;;;;;;18.48;46.94;99667.03;4484194;32;34067;-84
2022/04/28 08:22:25;;;;;;;;;;;;;;;18.78;45.34;99674.59;4484135;32;34207;-85
2022/04/28 08:24:52;;;;;;;;;;;;;;;18.98;45.61;99672.59;4484218;32;33885;-84
2022/04/28 08:27:24;;;;;;;;;;;;;;;18.30;48.13;99683.00;4483989;32;33220;-84
2022/04/28 08:29:52;;;;;;;;;;;;;;;19.28;44.45;99666.06;4483840;32;33826;-85
2022/04/28 08:32:20;;;;;;;;;;;;;;;17.93;47.24;99677.22;4484056;32;34193;-84
2022/04/28 08:34:47;;;;;;;;;;;;;;;18.53;48.06;99671.38;4484160;32;34289;-85
2022/04/28 08:37:14;;;;;;;;;;;;;;;17.61;49.19;99677.44;4484262;32;34907;-84
2022/04/28 08:39:43;;;;;;;;;;;;;;;19.16;45.23;99668.84;4470147;32;33908;-84
2022/04/28 08:42:11;;;;;;;;;;;;;;;18.93;45.89;99677.91;4484338;32;34238;-85
2022/04/28 08:44:40;;;;;;;;;;;;;;;19.76;43.77;99668.81;4470019;32;34102;-78
2022/04/28 08:47:10;;;;;;;;;;;;;;;19.62;44.29;99666.44;4484281;32;33298;-84
2022/04/28 08:49:38;;;;;;;;;;;;;;;19.83;44.56;99669.59;4469556;32;34966;-85
2022/04/28 08:52:06;;;;;;;;;;;;;;;19.56;43.54;99674.38;4470224;32;33592;-85
2022/04/28 08:54:36;;;;;;;;;;;;;;;20.72;42.09;99670.59;4483689;32;33853;-85
2022/04/28 08:57:05;;;;;;;;;;;;;;;20.32;42.73;99680.13;4470388;32;33112;-84
2022/04/28 08:59:33;;;;;;;;;;;;;;;19.51;41.25;99677.94;4469739;32;33947;-84
2022/04/28 09:02:00;;;;;;;;;;;;;;;19.36;43.04;99685.22;4483704;32;34286;-84
2022/04/28 09:04:37;;;;;;;;;;;;;;;18.99;44.77;99687.47;4483742;32;33508;-84
2022/04/28 09:07:10;;;;;;;;;;;;;;;20.09;41.70;99687.56;4483919;32;32108;-84
2022/04/28 09:09:48;;;;;;;;;;;;;;;20.03;40.85;99683.25;4483426;32;35016;-83
2022/04/28 09:12:29;;;;;;;;;;;;;;;19.56;43.17;99676.16;4470957;32;33772;-84
2022/04/28 09:15:10;;;;;;;;;;;;;;;20.84;40.59;99686.16;4483950;32;34958;-84
2022/04/28 09:17:41;;;;;;;;;;;;;;;20.89;41.24;99681.66;4483332;32;33507;-84
2022/04/28 09:20:13;;;;;;;;;;;;;;;20.61;42.72;99686.63;4483968;32;34939;-84
2022/04/28 09:22:42;;;;;;;;;;;;;;;21.31;40.77;99674.56;4470135;32;33907;-84
2022/04/28 09:25:10;;;;;;;;;;;;;;;20.28;42.31;99681.06;4484016;32;34391;-84
2022/04/28 09:27:39;;;;;;;;;;;;;;;21.00;39.72;99692.84;4484073;32;33733;-84
2022/04/28 09:30:06;;;;;;;;;;;;;;;21.27;40.10;99685.22;4484090;32;33664;-84
2022/04/28 09:32:36;;;;;;;;;;;;;;;20.60;41.79;99684.88;4483775;32;35158;-84
2022/04/28 09:35:24;;;;;;;;;;;;;;;20.21;42.86;99692.59;4472035;32;34212;-85
2022/04/28 09:37:51;;;;;;;;;;;;;;;20.88;40.27;99690.47;4484017;32;32617;-84
2022/04/28 09:43:05;;;;;;;;;;;;;;;20.12;42.56;99696.28;4471894;32;34088;-84
2022/04/28 09:45:33;;;;;;;;;;;;;;;20.98;40.77;99697.25;4469459;32;33816;-85
2022/04/28 09:48:02;;;;;;;;;;;;;;;20.06;41.37;99695.50;4469643;32;33107;-84
2022/04/28 09:50:31;;;;;;;;;;;;;;;20.81;42.34;99699.41;4469644;32;35065;-84
2022/04/28 09:53:04;;;;;;;;;;;;;;;21.06;39.99;99700.62;4483626;32;35091;-84
2022/04/28 09:55:34;;;;;;;;;;;;;;;21.61;38.54;99693.25;4483579;32;34444;-82
2022/04/28 09:58:06;;;;;;;;;;;;;;;20.81;39.15;99699.41;4483914;32;33452;-84
2022/04/28 10:00:33;;;;;;;;;;;;;;;21.56;39.28;99695.16;4483343;32;34972;-84
2022/04/28 10:03:04;;;;;;;;;;;;;;;20.91;38.55;99695.69;4483564;32;35217;-84
2022/04/28 10:05:33;;;;;;;;;;;;;;;21.51;38.61;99692.59;4483686;32;33955;-84
2022/04/28 10:08:03;;;;;;;;;;;;;;;21.58;39.22;99698.59;4483893;32;32936;-84
2022/04/28 10:10:30;;;;;;;;;;;;;;;21.83;37.44;99689.19;4469525;32;33168;-84
2022/04/28 10:12:57;;;;;;;;;;;;;;;22.03;36.52;99693.09;4469621;32;33857;-84
2022/04/28 10:15:25;;;;;;;;;;;;;;;21.96;38.02;99692.38;4469429;32;33888;-84
2022/04/28 10:17:55;;;;;;;;;;;;;;;21.56;38.91;99689.88;4469499;32;33684;-84
2022/04/28 10:20:29;;;;;;;;;;;;;;;22.30;38.73;99695.03;4469329;32;35100;-84
2022/04/28 10:23:17;;;;;;;;;;;;;;;20.79;39.37;99699.41;4471894;32;35056;-84
2022/04/28 10:34:54;;;;;;;;;;;;;;;21.57;34.81;99691.59;4483534;32;34162;-84
2022/04/28 10:37:23;;;;;;;;;;;;;;;21.74;35.39;99684.12;4483078;32;34977;-84
2022/04/28 10:39:52;;;;;;;;;;;;;;;22.51;32.05;99679.53;4483136;32;34229;-84
2022/04/28 10:42:20;;;;;;;;;;;;;;;22.42;33.58;99690.34;4468866;32;34550;-84
2022/04/28 10:44:54;;;;;;;;;;;;;;;21.67;34.15;99693.12;4468797;32;33855;-85
2022/04/28 10:47:28;;;;;;;;;;;;;;;22.88;32.73;99695.22;4483307;32;34255;-84
2022/04/28 10:49:56;;;;;;;;;;;;;;;22.05;34.25;99686.03;4483174;32;33407;-84
2022/04/28 10:52:25;;;;;;;;;;;;;;;22.47;33.90;99696.37;4483403;32;33708;-85
2022/04/28 10:54:53;;;;;;;;;;;;;;;22.69;33.58;99689.59;4469101;32;33965;-84
2022/04/28 10:57:30;;;;;;;;;;;;;;;22.57;34.27;99682.00;4468622;32;34025;-84
2022/04/28 11:00:00;;;;;;;;;;;;;;;22.34;35.34;99688.78;4468622;32;34264;-84
2022/04/28 11:02:28;;;;;;;;;;;;;;;22.25;35.95;99681.09;4482834;32;34902;-84
2022/04/28 11:05:21;;;;;;;;;;;;;;;22.28;36.30;99693.38;4482877;32;34216;-84
2022/04/28 11:07:49;;;;;;;;;;;;;;;21.52;37.05;99696.13;4474459;32;34061;-85
2022/04/28 11:10:16;;;;;;;;;;;;;;;21.57;37.83;99707.44;4482971;32;33966;-84
2022/04/28 11:12:44;;;;;;;;;;;;;;;21.54;37.89;99704.84;4482646;32;33963;-84
2022/04/28 11:15:13;;;;;;;;;;;;;;;21.91;36.17;99696.91;4482461;32;34843;-84
2022/04/28 11:17:44;;;;;;;;;;;;;;;22.09;38.60;99703.53;4468763;32;34658;-85
2022/04/28 11:20:12;;;;;;;;;;;;;;;21.37;36.85;99703.50;4482886;32;33688;-84
2022/04/28 11:22:43;;;;;;;;;;;;;;;21.74;35.77;99705.25;4468862;32;34490;-84
2022/04/28 11:25:11;;;;;;;;;;;;;;;21.91;36.37;99701.34;4468499;32;34354;-84
2022/04/28 11:27:39;;;;;;;;;;;;;;;21.95;36.36;99701.22;4482696;32;34797;-84
2022/04/28 11:30:09;;;;;;;;;;;;;;;21.17;38.06;99695.09;4468728;32;33774;-84
2022/04/28 11:32:44;;;;;;;;;;;;;;;22.11;34.85;99712.25;4468369;32;33827;-84
2022/04/28 11:35:12;;;;;;;;;;;;;;;22.25;35.04;99709.31;4482511;32;33894;-85
2022/04/28 11:37:39;;;;;;;;;;;;;;;21.79;35.90;99718.34;4482683;32;33773;-84
2022/04/28 11:40:11;;;;;;;;;;;;;;;21.93;33.54;99710.06;4482530;32;33641;-84
2022/04/28 11:43:01;;;;;;;;;;;;;;;21.70;34.44;99708.84;4484778;32;35098;-84
2022/04/28 11:45:30;;;;;;;;;;;;;;;21.81;34.61;99717.38;4470470;32;33896;-84
2022/04/28 11:47:59;;;;;;;;;;;;;;;21.03;36.86;99716.50;4470220;32;34885;-84
2022/04/28 11:50:30;;;;;;;;;;;;;;;21.34;35.58;99716.75;4470499;32;33180;-84
2022/04/28 11:52:59;;;;;;;;;;;;;;;21.00;36.59;99723.62;4484271;32;34312;-84
2022/04/28 11:55:30;;;;;;;;;;;;;;;21.00;37.37;99728.88;4470480;32;34314;-84
2022/04/28 11:57:58;;;;;;;;;;;;;;;22.62;35.41;99718.87;4470631;32;33894;-85
2022/04/28 12:00:26;;;;;;;;;;;;;;;21.60;35.48;99715.28;4484253;32;33358;-84
2022/04/28 12:02:53;;;;;;;;;;;;;;;21.89;36.00;99717.19;4484445;32;33783;-84
2022/04/28 12:05:22;;;;;;;;;;;;;;;21.04;36.86;99720.00;4470429;32;35106;-84
2022/04/28 12:07:53;;;;;;;;;;;;;;;21.25;35.80;99716.91;4444619;32;804266;-84
2022/04/28 12:16:00;;;;;;;;;;;;;;;22.20;34.81;99721.72;4484270;32;34799;-84
2022/04/28 12:21:17;;;;;;;;;;;;;;;21.63;35.56;99723.12;4484124;32;33126;-84
2022/04/28 12:23:50;;;;;;;;;;;;;;;22.20;33.58;99714.72;4482916;32;34428;-84
2022/04/28 12:26:21;;;;;;;;;;;;;;;22.11;33.40;99715.75;4471866;32;35125;-84
2022/04/28 12:28:48;;;;;;;;;;;;;;;22.91;33.88;99716.28;4468454;32;34254;-84
2022/04/28 12:31:17;;;;;;;;;;;;;;;22.18;35.00;99721.78;4484163;32;34244;-84
2022/04/28 12:34:08;;;;;;;;;;;;;;;21.89;33.72;99708.41;4456250;32;34925;-84
2022/04/28 12:36:45;;;;;;;;;;;;;;;20.96;34.99;99714.91;4469378;32;35100;-83
2022/04/28 12:39:13;;;;;;;;;;;;;;;21.71;33.97;99715.91;4469875;32;35073;-84
2022/04/28 12:41:41;;;;;;;;;;;;;;;21.92;34.31;99721.53;4469684;32;33346;-83
2022/04/28 12:44:10;;;;;;;;;;;;;;;22.55;32.65;99708.47;4483912;32;34992;-84
2022/04/28 12:46:38;;;;;;;;;;;;;;;22.49;34.39;99718.34;4469615;32;34517;-83
2022/04/28 12:49:06;;;;;;;;;;;;;;;22.58;32.20;99695.19;4469730;32;34714;-83
2022/04/28 12:51:41;;;;;;;;;;;;;;;22.44;32.66;99707.91;4484074;32;33394;-84
2022/04/28 12:54:11;;;;;;;;;;;;;;;23.16;33.15;99703.22;4479024;32;35016;-85
2022/04/28 12:56:39;;;;;;;;;;;;;;;21.62;34.12;99705.53;4482446;32;34416;-83
2022/04/28 12:59:07;;;;;;;;;;;;;;;21.94;33.44;99706.56;4483404;32;34239;-83
2022/04/28 13:01:36;;;;;;;;;;;;;;;21.66;35.15;99716.88;4468171;32;34276;-84
2022/04/28 13:04:03;;;;;;;;;;;;;;;21.31;34.44;99700.06;4491490;31;34547;-85
2022/04/28 13:06:31;;;;;;;;;;;;;;;21.68;33.66;99705.41;4498224;31;34418;-84
2022/04/28 13:09:00;;;;;;;;;;;;;;;21.91;33.53;99709.25;4469957;32;34152;-84
2022/04/28 13:11:28;;;;;;;;;;;;;;;22.32;32.52;99705.59;4468114;32;34374;-85
2022/04/28 13:13:56;;;;;;;;;;;;;;;22.56;31.89;99712.84;4468145;32;33940;-85
2022/04/28 13:16:24;;;;;;;;;;;;;;;23.08;31.16;99699.94;4467965;32;35067;-84
2022/04/28 13:18:52;;;;;;;;;;;;;;;22.60;30.61;99716.25;4468034;32;35089;-85
2022/04/28 13:21:19;;;;;;;;;;;;;;;22.50;31.62;99702.47;4482088;32;33311;-84
2022/04/28 13:23:52;;;;;;;;;;;;;;;22.23;32.54;99706.69;4483032;32;34312;-81
2022/04/28 13:26:20;;;;;;;;;;;;;;;22.77;30.18;99700.81;4469285;32;34449;-83
2022/04/28 13:28:48;;;;;;;;;;;;;;;23.16;30.39;99705.88;4469542;32;33838;-83
2022/04/28 13:31:16;;;;;;;;;;;;;;;22.63;31.86;99705.63;4483485;32;33889;-84
2022/04/28 13:33:43;;;;;;;;;;;;;;;22.91;29.58;99704.81;4469492;32;34330;-84
2022/04/28 13:36:11;;;;;;;;;;;;;;;22.32;30.11;99708.22;4483032;32;34433;-83
2022/04/28 13:38:38;;;;;;;;;;;;;;;23.49;28.42;99705.75;4468121;32;35314;-83